logo
Search for airport 
image banner adimage banner adimage banner ad
image banner ad

EDOQ - Oschatz

Located in Oschatz, Germany

ICAO - EDOQ, IATA -

Data provided by Airmate  

General information

Coordinates: N51°17'49" E13°4'41"
Elevation is 502 feet MSL.
 
View others Airports in Saxony

Operational data

Special qualification required
Current time UTC:
Current local time:
Weather at : EDDC - Dresden ( 51 km )
METAR: EDDC 302050Z AUTO 22004KT CAVOK 14/11 Q1004
TAF: TAF EDDC 301700Z 3018/3118 15005KT 9999 FEW045 BECMG 3018/3020 21005KT TEMPO 3018/3020 4000 SHRA BKN035CB PROB30 TEMPO 3018/3020 TSRA BKN035CB BECMG 3022/3102 4000 BR BKN008 TEMPO 3100/3106 2500 BR BKN004 BECMG 3105/3108 32005KT 9999 BKN012 BECMG 3108/3111 SCT020 TEMPO 3116/3118 3000 SHRA BKN025CB
View NOTAMs / SUP AIP / TFR affecting this airport [VIEW]
Communications frequencies: [VIEW]

Runways:

RWY identifierQFULength (ft)Width (ft)SurfaceLDA (ft)
0878°2723131GRASS2477
26258°2723131GRASS2723

Airport contact information

Address: Oschatz Germany

Satellite view of EDOQ